Airfield :
LOGIN :

Register | Disclaimer

   EN    FR    IT 

 










Legend :    VFR   Marginal VFR   IFR   Intensive IFR   Very Intensive IFR
Visi :
Ceiling :
>= 8 km
>= 3000ft
5 to 8 km
1000 to 3000 ft
1500m to 5 km
500 to 1000 ft
800 to 1500m
200 to 500 ft
< 800m
< 200 ft
Symbols :   Thunderstorms  Fog  Heavy snow  Heavy precipitations  Wind > 20 kt
SIGMETs :     Misc.  Thunderstorms  Icing  Turbulence  Mountain Waves  Volcanic Ashes






- Airport Elevation : 19 ft
- IATA code : LCY


EGLC - London City

CURRENT METAR :
  • 200450Z AUTO 21013KT 190V250 9999 -RA FEW019 SCT025 BKN045 10/07 Q1010

EXPIRED METARs :
  • 200420Z AUTO 22008KT 190V250 9999 FEW027 OVC036 10/07 Q1011
  • 200350Z AUTO 23011KT 9999 SCT014 BKN041 09/07 Q1011
  • 200320Z AUTO 23008KT 7000 -RA SCT012 BKN018 BKN023 09/08 Q1011
  • 200250Z AUTO 23010KT 8000 -RA BKN014 BKN018 OVC040 10/07 Q1012
  • 200220Z AUTO 23011KT 200V260 8000 -RA SCT015 BKN019 BKN025 10/07 Q1012 RERA

TAF AMD TAF EGLC
Valid from the 20 at 03:00 until the 20 at 12:00 UTC


200335Z 2003/2012 23013KT 9999 BKN018
TEMPO 2003/2007 22015G25KT
TEMPO 2003/2011 4000 -RADZ BKN012
BECMG 2007/2010 22018G28KT
TEMPO 2011/2012 7000 RA BKN012
ATIS : +44 20 7646 0224



MET'MAP, your aeronautical weather chart ! - Copyright ORBIFLY December 2007 - Disclaimer

ORBIFLY MET'MAP TEAM :

Programming & Development : Alexandra Zaïnal
Concept & original design : Baudouin d'Aumeries
Assistance for programming : Marc-Olivier Méhu
Technical & hardware support : Manuel Goepfert

Contact : metmap@orbifly.com




SOURCES & CREDITS :

   NOAA